Time,TemperatureF,DewpointF,PressureIn,WindDirection,WindDirectionDegrees,WindSpeedMPH,WindSpeedGustMPH,Humidity,HourlyPrecipIn,Conditions,Clouds,dailyrainin,SoftwareType,DateUTC
2013-05-07 00:01:00,39.4,35.3,29.88,SSW,195,4.0,5.0,85,0.01,,---,0.00,VWS V12.07,2013-05-07 06:01:00,
2013-05-07 00:16:00,39.9,36.1,29.93,SSE,159,4.0,9.0,86,0.01,,---,0.00,VWS V12.07,2013-05-07 06:16:00,
2013-05-07 00:31:00,40.2,36.3,29.92,East,96,6.0,6.0,86,0.01,,---,0.00,VWS V12.07,2013-05-07 06:31:00,
2013-05-07 00:46:00,39.3,36.0,29.94,East,96,0.0,7.0,88,0.00,,---,0.00,VWS V12.07,2013-05-07 06:46:00,
2013-05-07 01:01:00,39.2,36.0,29.94,South,187,4.0,5.0,88,0.00,,---,0.00,VWS V12.07,2013-05-07 07:01:00,
2013-05-07 01:16:00,39.1,35.8,29.92,South,173,4.0,9.0,88,0.00,,---,0.00,VWS V12.07,2013-05-07 07:16:00,
2013-05-07 01:31:00,38.7,35.5,29.92,NNW,330,0.0,0.0,88,0.00,,---,0.00,VWS V12.07,2013-05-07 07:31:00,
2013-05-07 01:46:00,38.3,34.8,29.92,NNW,330,0.0,0.0,87,0.00,,---,0.00,VWS V12.07,2013-05-07 07:46:00,
2013-05-07 02:01:00,36.7,33.2,29.94,NNW,330,0.0,0.0,87,0.00,,---,0.00,VWS V12.07,2013-05-07 08:01:00,
2013-05-07 02:16:00,35.9,32.7,29.88,NNW,330,0.0,0.0,88,0.00,,---,0.00,VWS V12.07,2013-05-07 08:16:00,
2013-05-07 02:31:00,35.4,32.2,29.90,NNW,330,0.0,0.0,88,0.00,,---,0.00,VWS V12.07,2013-05-07 08:31:00,
2013-05-07 02:46:00,35.2,32.3,29.90,NNW,330,0.0,0.0,89,0.00,,---,0.00,VWS V12.07,2013-05-07 08:46:00,
2013-05-07 03:01:00,35.3,32.4,29.90,NNW,330,0.0,0.0,89,0.00,,---,0.00,VWS V12.07,2013-05-07 09:01:00,
2013-05-07 03:16:00,35.3,32.4,29.96,NNW,330,0.0,4.0,89,0.00,,---,0.00,VWS V12.07,2013-05-07 09:16:00,
2013-05-07 03:31:00,35.8,33.2,29.93,SSW,210,0.0,0.0,90,0.00,,---,0.00,VWS V12.07,2013-05-07 09:31:00,
2013-05-07 03:46:00,36.4,33.8,29.93,SE,128,0.0,6.0,90,0.00,,---,0.00,VWS V12.07,2013-05-07 09:46:00,
2013-05-07 04:01:00,35.5,32.6,29.93,SE,128,0.0,0.0,89,0.00,,---,0.00,VWS V12.07,2013-05-07 10:01:00,
2013-05-07 04:16:00,34.9,32.0,29.94,SE,128,0.0,0.0,89,0.00,,---,0.00,VWS V12.07,2013-05-07 10:16:00,
2013-05-07 04:31:00,34.8,31.9,29.94,SE,128,4.0,4.0,89,0.00,,---,0.00,VWS V12.07,2013-05-07 10:31:00,
2013-05-07 04:46:00,35.0,32.1,29.95,SE,128,0.0,4.0,89,0.00,,---,0.00,VWS V12.07,2013-05-07 10:46:00,
2013-05-07 05:01:00,36.4,33.8,29.92,SSE,153,0.0,0.0,90,0.01,,---,0.01,VWS V12.07,2013-05-07 11:01:00,
2013-05-07 05:16:00,37.1,34.4,29.94,SSE,153,0.0,4.0,90,0.01,,---,0.01,VWS V12.07,2013-05-07 11:16:00,
2013-05-07 05:31:00,36.0,33.1,29.95,ESE,122,5.0,10.0,89,0.01,,---,0.01,VWS V12.07,2013-05-07 11:31:00,
2013-05-07 05:46:00,35.7,33.1,29.95,SSE,155,6.0,8.0,90,0.01,,---,0.01,VWS V12.07,2013-05-07 11:46:00,
2013-05-07 06:01:00,35.2,32.6,29.94,SSE,161,6.0,6.0,90,0.01,,---,0.01,VWS V12.07,2013-05-07 12:01:00,
2013-05-07 06:16:00,36.3,33.9,29.94,SSE,160,5.0,8.0,91,0.00,,---,0.01,VWS V12.07,2013-05-07 12:16:00,
2013-05-07 06:31:00,36.9,34.2,29.92,SE,140,11.0,11.0,90,0.00,,---,0.01,VWS V12.07,2013-05-07 12:31:00,
2013-05-07 06:46:00,37.8,34.9,29.92,SSE,152,3.0,12.0,89,0.00,,---,0.01,VWS V12.07,2013-05-07 12:46:00,
2013-05-07 07:01:00,39.0,36.0,29.90,SE,145,6.0,6.0,89,0.00,,---,0.01,VWS V12.07,2013-05-07 13:01:00,
2013-05-07 07:16:00,42.1,38.2,29.90,SSE,167,0.0,9.0,86,0.00,,---,0.01,VWS V12.07,2013-05-07 13:16:00,
2013-05-07 07:31:00,42.8,37.7,29.89,East,97,4.0,4.0,82,0.00,,---,0.01,VWS V12.07,2013-05-07 13:31:00,
2013-05-07 07:46:00,42.4,37.9,29.91,ESE,115,4.0,10.0,84,0.00,,---,0.01,VWS V12.07,2013-05-07 13:46:00,
2013-05-07 08:01:00,44.8,39.0,29.88,ESE,117,0.0,0.0,80,0.00,,---,0.01,VWS V12.07,2013-05-07 14:01:00,
2013-05-07 08:16:00,47.2,39.7,29.88,ESE,117,0.0,0.0,75,0.00,,---,0.01,VWS V12.07,2013-05-07 14:16:00,
2013-05-07 08:31:00,47.7,38.8,29.87,NE,54,5.0,5.0,71,0.00,,---,0.01,VWS V12.07,2013-05-07 14:31:00,
2013-05-07 08:46:00,48.3,39.0,29.87,NE,52,5.0,6.0,70,0.00,,---,0.01,VWS V12.07,2013-05-07 14:46:00,
2013-05-07 09:01:00,48.7,37.9,29.85,ESE,114,2.0,3.0,66,0.00,,---,0.01,VWS V12.07,2013-05-07 15:01:00,
2013-05-07 09:16:00,50.0,37.5,29.85,East,92,5.0,7.0,62,0.00,,---,0.01,VWS V12.07,2013-05-07 15:16:00,
2013-05-07 09:31:00,50.3,36.1,29.85,East,92,0.0,0.0,58,0.00,,---,0.01,VWS V12.07,2013-05-07 15:31:00,
2013-05-07 09:46:00,51.2,35.1,29.86,East,92,0.0,5.0,54,0.00,,---,0.01,VWS V12.07,2013-05-07 15:46:00,
2013-05-07 10:01:00,52.4,38.1,29.83,NNW,336,0.0,0.0,58,0.00,,---,0.01,VWS V12.07,2013-05-07 16:01:00,
2013-05-07 10:16:00,49.8,36.9,29.85,NNE,19,0.0,11.0,61,0.00,,---,0.01,VWS V12.07,2013-05-07 16:16:00,
2013-05-07 10:31:00,48.5,37.3,29.85,North,360,0.0,0.0,65,0.00,,---,0.01,VWS V12.07,2013-05-07 16:31:00,
2013-05-07 10:46:00,49.9,39.0,29.85,NW,317,4.0,6.0,66,0.00,,---,0.01,VWS V12.07,2013-05-07 16:46:00,
2013-05-07 11:01:00,49.0,38.9,29.85,NNW,342,11.0,13.0,68,0.00,,---,0.01,VWS V12.07,2013-05-07 17:01:00,
2013-05-07 11:16:00,48.0,38.3,29.87,NNW,336,10.0,17.0,69,0.00,,---,0.01,VWS V12.07,2013-05-07 17:16:00,
2013-05-07 11:31:00,47.4,36.6,29.88,North,355,3.0,4.0,66,0.00,,---,0.01,VWS V12.07,2013-05-07 17:31:00,
2013-05-07 11:46:00,47.0,34.7,29.88,WNW,290,0.0,15.0,62,0.00,,---,0.01,VWS V12.07,2013-05-07 17:46:00,
2013-05-07 12:01:00,47.4,35.8,29.88,SW,222,1.0,3.0,64,0.00,,---,0.01,VWS V12.07,2013-05-07 18:01:00,
2013-05-07 12:16:00,47.8,36.6,29.88,NW,313,0.0,12.0,65,0.00,,---,0.01,VWS V12.07,2013-05-07 18:16:00,
2013-05-07 12:31:00,48.9,34.8,29.86,SW,215,5.0,5.0,58,0.00,,---,0.01,VWS V12.07,2013-05-07 18:31:00,
2013-05-07 12:46:00,47.4,34.6,29.87,NNW,337,0.0,6.0,61,0.00,,---,0.01,VWS V12.07,2013-05-07 18:46:00,
2013-05-07 13:01:00,47.0,36.2,29.87,NNW,346,0.0,2.0,66,0.00,,---,0.01,VWS V12.07,2013-05-07 19:01:00,
2013-05-07 13:16:00,46.9,37.6,29.88,WNW,294,0.0,13.0,70,0.00,,---,0.01,VWS V12.07,2013-05-07 19:16:00,
2013-05-07 13:31:00,49.4,37.8,29.86,WNW,283,5.0,5.0,64,0.00,,---,0.01,VWS V12.07,2013-05-07 19:31:00,
2013-05-07 13:46:00,50.9,36.2,29.85,West,273,0.0,6.0,57,0.00,,---,0.01,VWS V12.07,2013-05-07 19:46:00,
2013-05-07 14:01:00,48.6,35.8,29.87,North,360,0.0,0.0,61,0.00,,---,0.01,VWS V12.07,2013-05-07 20:01:00,
2013-05-07 14:16:00,47.0,37.7,29.90,North,360,0.0,3.0,70,0.00,,---,0.01,VWS V12.07,2013-05-07 20:16:00,
2013-05-07 14:31:00,45.3,38.2,29.92,North,360,0.0,3.0,76,0.01,,---,0.02,VWS V12.07,2013-05-07 20:31:00,
2013-05-07 14:46:00,45.4,40.2,29.91,West,275,0.0,5.0,82,0.01,,---,0.02,VWS V12.07,2013-05-07 20:46:00,
2013-05-07 15:01:00,48.3,41.4,29.89,West,268,0.0,0.0,77,0.01,,---,0.02,VWS V12.07,2013-05-07 21:01:00,
2013-05-07 15:16:00,47.5,38.2,29.87,North,9,6.0,11.0,70,0.01,,---,0.02,VWS V12.07,2013-05-07 21:16:00,
2013-05-07 15:31:00,47.8,37.8,29.87,North,10,0.0,13.0,68,0.01,,---,0.02,VWS V12.07,2013-05-07 21:31:00,
2013-05-07 15:46:00,47.4,37.8,29.88,North,360,10.0,13.0,69,0.00,,---,0.02,VWS V12.07,2013-05-07 21:46:00,
2013-05-07 16:01:00,48.0,38.7,29.86,NNE,14,7.0,9.0,70,0.00,,---,0.02,VWS V12.07,2013-05-07 22:01:00,
2013-05-07 16:16:00,48.7,39.0,29.84,NNE,26,6.0,14.0,69,0.00,,---,0.02,VWS V12.07,2013-05-07 22:16:00,
2013-05-07 16:31:00,48.6,38.5,29.84,North,5,6.0,14.0,68,0.00,,---,0.02,VWS V12.07,2013-05-07 22:31:00,
2013-05-07 16:46:00,47.2,38.7,29.86,North,355,5.0,9.0,72,0.00,,---,0.02,VWS V12.07,2013-05-07 22:46:00,
2013-05-07 17:01:00,46.4,38.9,29.86,North,360,0.0,0.0,75,0.00,,---,0.02,VWS V12.07,2013-05-07 23:01:00,
2013-05-07 17:16:00,45.8,38.3,29.88,North,349,2.0,7.0,75,0.00,,---,0.02,VWS V12.07,2013-05-07 23:16:00,
2013-05-07 17:31:00,45.4,38.6,29.88,NNW,340,0.0,2.0,77,0.00,,---,0.02,VWS V12.07,2013-05-07 23:31:00,
2013-05-07 17:46:00,45.3,38.5,29.88,NNW,340,0.0,5.0,77,0.00,,---,0.02,VWS V12.07,2013-05-07 23:46:00,
2013-05-07 18:01:00,45.2,38.8,29.88,NNW,340,0.0,0.0,78,0.00,,---,0.02,VWS V12.07,2013-05-08 00:01:00,
2013-05-07 18:16:00,46.0,39.5,29.85,NW,306,0.0,6.0,78,0.00,,---,0.02,VWS V12.07,2013-05-08 00:16:00,
2013-05-07 18:31:00,45.8,39.0,29.86,NNW,330,0.0,0.0,77,0.00,,---,0.02,VWS V12.07,2013-05-08 00:31:00,
2013-05-07 18:46:00,45.0,38.9,29.86,NNW,338,0.0,6.0,79,0.00,,---,0.02,VWS V12.07,2013-05-08 00:46:00,
2013-05-07 19:01:00,44.6,39.5,29.86,North,350,0.0,2.0,82,0.00,,---,0.02,VWS V12.07,2013-05-08 01:01:00,
2013-05-07 19:16:00,43.2,39.3,29.81,North,10,3.0,7.0,86,0.01,,---,0.03,VWS V12.07,2013-05-08 01:16:00,
2013-05-07 19:31:00,42.6,39.0,29.83,North,10,0.0,0.0,87,0.01,,---,0.03,VWS V12.07,2013-05-08 01:31:00,
2013-05-07 19:46:00,42.3,39.0,29.84,North,10,0.0,0.0,88,0.01,,---,0.03,VWS V12.07,2013-05-08 01:46:00,
2013-05-07 20:01:00,41.6,38.3,29.84,North,10,0.0,0.0,88,0.01,,---,0.03,VWS V12.07,2013-05-08 02:01:00,
2013-05-07 20:16:00,40.8,37.5,29.81,North,11,0.0,0.0,88,0.01,,---,0.03,VWS V12.07,2013-05-08 02:16:00,
2013-05-07 20:31:00,40.1,36.8,29.82,North,5,0.0,0.0,88,0.01,,---,0.03,VWS V12.07,2013-05-08 02:31:00,
2013-05-07 20:47:00,39.4,36.2,29.83,North,5,0.0,0.0,88,0.00,,---,0.03,VWS V12.07,2013-05-08 02:47:00,
2013-05-07 21:01:00,39.0,36.0,29.83,North,360,0.0,0.0,89,0.00,,---,0.03,VWS V12.07,2013-05-08 03:01:00,
2013-05-07 21:16:00,38.9,36.2,29.82,North,360,0.0,0.0,90,0.00,,---,0.03,VWS V12.07,2013-05-08 03:16:00,
2013-05-07 21:31:00,38.9,36.2,29.82,North,5,0.0,0.0,90,0.00,,---,0.03,VWS V12.07,2013-05-08 03:31:00,
2013-05-07 21:46:00,39.6,36.9,29.80,North,360,0.0,0.0,90,0.00,,---,0.03,VWS V12.07,2013-05-08 03:46:00,
2013-05-07 22:01:00,40.0,37.3,29.80,North,5,0.0,0.0,90,0.00,,---,0.03,VWS V12.07,2013-05-08 04:01:00,
2013-05-07 22:16:00,40.4,37.7,29.83,North,5,0.0,0.0,90,0.00,,---,0.03,VWS V12.07,2013-05-08 04:16:00,
2013-05-07 22:31:00,40.7,38.0,29.81,North,360,0.0,0.0,90,0.00,,---,0.03,VWS V12.07,2013-05-08 04:31:00,
2013-05-07 22:46:00,40.8,38.1,29.81,North,5,0.0,0.0,90,0.00,,---,0.03,VWS V12.07,2013-05-08 04:46:00,
2013-05-07 23:01:00,41.0,38.3,29.81,North,5,0.0,0.0,90,0.00,,---,0.03,VWS V12.07,2013-05-08 05:01:00,
2013-05-07 23:16:00,41.0,38.3,29.82,North,5,0.0,0.0,90,0.00,,---,0.03,VWS V12.07,2013-05-08 05:16:00,
2013-05-07 23:31:00,40.1,37.4,29.83,North,360,0.0,0.0,90,0.00,,---,0.03,VWS V12.07,2013-05-08 05:31:00,
2013-05-07 23:46:00,39.1,36.1,29.83,North,360,0.0,0.0,89,0.00,,---,0.03,VWS V12.07,2013-05-08 05:46:00,